Weather at Frigg QP Platform [CLOSED]

Public forecast

Using degrees Celsius for public forecast. Weather courtesy of forecast.io.

Closest aviation weather report (METAR) to Frigg QP Platform

Closest report is Oseberg A Platform, 43.2 nm (80.1 km) NNE.

2024/04/12 17:20 (retrieved 27 minutes ago)

ENOA 121720Z 21024KT 9999 FEW040 09/06 Q1012 W///S4

Closest aviation forecast (TAF) to Frigg QP Platform

Closest forecast is Oseberg A Platform, 43.2 nm (80.1 km) NNE.

2024/04/12 15:36 (retrieved 2 hours ago)

TAF TAF ENOA 121400Z 1215/1315 23028KT 9999 FEW025 SCT045 BECMG 1220/1222 17038KT TEMPO 1222/1301 3000 SHRA BKN004 SCT018CB BECMG 1300/1302 23035KT BECMG 1311/1313 19022KT TEMPO 1314/1315 4000 SHRA BKN008 SCT018CB